Time;durP1;ratioP1;P1;durP2;ratioP2;P2;SDS_P1;SDS_P2;PMS_P1;PMS_P2;Temp;Humidity;BMP_temperature;BMP_pressure;BME280_temperature;BME280_humidity;BME280_pressure;Samples;Min_cycle;Max_cycle;Signal;HPM_P1;HPM_P2
2022/07/08 00:01:14;;;;;;;22.38;2.45;;;42.00;19.50;;;;;;4952258;29;20081;-64
2022/07/08 00:03:41;;;;;;;22.63;2.33;;;41.80;19.70;;;;;;4941953;29;20408;-62
2022/07/08 00:06:07;;;;;;;20.48;2.90;;;41.80;19.70;;;;;;4947785;28;20142;-62
2022/07/08 00:08:34;;;;;;;20.95;2.60;;;41.80;19.70;;;;;;4949095;28;20052;-64
2022/07/08 00:11:01;;;;;;;23.23;2.72;;;41.80;19.80;;;;;;4949696;29;20039;-63
2022/07/08 00:13:27;;;;;;;22.45;2.28;;;41.60;19.80;;;;;;4950788;28;20071;-62
2022/07/08 00:15:53;;;;;;;21.63;2.53;;;41.70;20.10;;;;;;4948707;29;20045;-62
2022/07/08 00:18:20;;;;;;;22.27;2.33;;;41.60;19.80;;;;;;4918416;29;20081;-59
2022/07/08 00:20:46;;;;;;;17.27;1.88;;;41.60;19.90;;;;;;4950263;29;20221;-61
2022/07/08 00:23:13;;;;;;;29.05;2.30;;;41.50;19.70;;;;;;4949523;29;20114;-60
2022/07/08 00:25:39;;;;;;;22.40;2.67;;;41.40;20.00;;;;;;4933672;29;20147;-59
2022/07/08 00:28:05;;;;;;;18.90;1.85;;;41.30;19.80;;;;;;4933314;29;20055;-60
2022/07/08 00:30:32;;;;;;;21.67;2.55;;;41.20;19.90;;;;;;4949485;28;20062;-61
2022/07/08 00:32:58;;;;;;;22.42;2.80;;;41.20;20.00;;;;;;4949574;28;20054;-61
2022/07/08 00:35:25;;;;;;;37.80;3.05;;;41.20;20.00;;;;;;4933651;29;20381;-61
2022/07/08 00:37:53;;;;;;;39.85;3.10;;;41.10;20.10;;;;;;4948436;29;20517;-61
2022/07/08 00:40:20;;;;;;;28.73;2.55;;;40.90;20.00;;;;;;4949530;29;20056;-62
2022/07/08 00:42:48;;;;;;;27.80;2.53;;;40.90;20.40;;;;;;4950648;28;20040;-62
2022/07/08 00:45:17;;;;;;;20.92;2.58;;;40.80;20.20;;;;;;4949405;28;20048;-61
2022/07/08 00:47:44;;;;;;;18.15;2.08;;;40.70;20.20;;;;;;4949757;28;20140;-61
2022/07/08 00:50:13;;;;;;;25.85;2.70;;;40.70;20.40;;;;;;4949597;28;20072;-62
2022/07/08 00:52:40;;;;;;;18.30;2.00;;;40.60;20.20;;;;;;4948857;28;20063;-60
2022/07/08 00:55:08;;;;;;;25.83;2.67;;;40.50;20.50;;;;;;4949122;28;20419;-62
2022/07/08 00:57:38;;;;;;;22.27;2.08;;;40.50;20.20;;;;;;4949369;29;20525;-62
2022/07/08 01:00:05;;;;;;;29.70;3.13;;;40.30;20.40;;;;;;4965437;28;20387;-62
2022/07/08 01:02:31;;;;;;;21.48;2.38;;;40.30;20.40;;;;;;4950188;28;20047;-60
2022/07/08 01:04:58;;;;;;;19.63;3.03;;;40.40;20.70;;;;;;4950234;29;20123;-61
2022/07/08 01:07:24;;;;;;;29.20;3.53;;;40.40;20.50;;;;;;4946000;28;20515;-60
2022/07/08 01:09:51;;;;;;;24.00;2.38;;;40.30;20.30;;;;;;4948783;28;20053;-62
2022/07/08 01:12:18;;;;;;;31.25;2.95;;;40.10;20.20;;;;;;4953708;28;20549;-61
2022/07/08 01:14:44;;;;;;;28.52;2.85;;;39.90;20.40;;;;;;4953123;28;20091;-61
2022/07/08 01:17:11;;;;;;;32.33;2.78;;;39.90;20.30;;;;;;4969805;28;20057;-61
2022/07/08 01:19:37;;;;;;;32.88;3.50;;;39.80;20.30;;;;;;4952969;28;20071;-63
2022/07/08 01:22:03;;;;;;;26.55;2.97;;;39.80;20.20;;;;;;4952931;28;20422;-60
2022/07/08 01:24:30;;;;;;;32.72;2.72;;;39.70;20.20;;;;;;4953684;28;20061;-62
2022/07/08 01:26:57;;;;;;;21.02;2.20;;;39.50;20.00;;;;;;4952249;29;20052;-65
2022/07/08 01:29:23;;;;;;;17.02;2.33;;;39.50;20.20;;;;;;4953485;28;20062;-63
2022/07/08 01:31:53;;;;;;;47.53;3.63;;;39.40;20.60;;;;;;4953178;28;20518;-63
2022/07/08 01:34:19;;;;;;;47.50;3.47;;;39.40;20.30;;;;;;4952991;28;20055;-60
2022/07/08 01:36:46;;;;;;;24.17;3.28;;;39.40;20.60;;;;;;4952304;28;20067;-62
2022/07/08 01:39:12;;;;;;;55.88;3.97;;;39.20;20.40;;;;;;4952850;28;20063;-62
2022/07/08 01:41:38;;;;;;;27.08;3.10;;;39.10;20.30;;;;;;4936229;29;20061;-60
2022/07/08 01:44:05;;;;;;;19.15;1.80;;;39.00;20.50;;;;;;4937782;29;20075;-65
2022/07/08 01:46:31;;;;;;;21.50;2.38;;;39.00;20.70;;;;;;4969338;28;20102;-64
2022/07/08 01:48:58;;;;;;;21.48;2.70;;;38.90;20.40;;;;;;4936788;29;20064;-63
2022/07/08 01:51:24;;;;;;;18.23;1.88;;;38.90;20.60;;;;;;4920949;29;20057;-64
2022/07/08 01:53:50;;;;;;;31.75;3.10;;;38.90;20.60;;;;;;4953654;28;20068;-63
2022/07/08 01:56:17;;;;;;;23.58;2.20;;;38.80;20.40;;;;;;4953572;28;20148;-62
2022/07/08 01:58:43;;;;;;;20.35;2.05;;;38.70;20.70;;;;;;4952852;28;20135;-60
2022/07/08 02:01:09;;;;;;;12.57;2.08;;;38.60;20.80;;;;;;4952556;28;20149;-62
2022/07/08 02:03:36;;;;;;;18.88;2.00;;;38.60;20.90;;;;;;4951985;28;20347;-62
2022/07/08 02:06:02;;;;;;;28.52;2.20;;;38.50;20.80;;;;;;4953251;29;20048;-61
2022/07/08 02:08:28;;;;;;;19.67;2.10;;;38.50;20.40;;;;;;4951016;29;20087;-61
2022/07/08 02:13:39;;;;;;;20.17;2.13;;;38.30;20.40;;;;;;4951382;29;20065;-62
2022/07/08 02:16:06;;;;;;;27.00;2.85;;;38.20;20.50;;;;;;4951935;28;20104;-61
2022/07/08 02:18:32;;;;;;;29.75;2.58;;;38.10;20.60;;;;;;4952698;28;20083;-61
2022/07/08 02:20:58;;;;;;;23.60;1.80;;;38.00;20.60;;;;;;4952969;29;20063;-61
2022/07/08 02:23:25;;;;;;;20.33;1.55;;;38.00;20.50;;;;;;4967856;28;20401;-63
2022/07/08 02:25:51;;;;;;;18.52;2.00;;;37.80;20.30;;;;;;4952158;28;20060;-63
2022/07/08 02:29:13;;;;;;;23.75;2.60;;;37.70;21.50;;;;;;5146790;27;20147;-65
2022/07/08 02:31:39;;;;;;;21.23;2.67;;;37.60;20.30;;;;;;5112002;27;20087;-67
2022/07/08 02:34:05;;;;;;;24.83;4.30;;;37.60;20.80;;;;;;5129069;27;20059;-66
2022/07/08 02:36:32;;;;;;;33.38;5.22;;;37.60;20.90;;;;;;5113207;28;20167;-63
2022/07/08 02:38:58;;;;;;;19.50;4.60;;;37.60;20.90;;;;;;5126130;28;20428;-62
2022/07/08 02:41:24;;;;;;;17.52;3.38;;;37.50;21.00;;;;;;5108919;28;20415;-61
2022/07/08 02:43:51;;;;;;;21.85;2.65;;;37.40;21.00;;;;;;5100035;28;20053;-62
2022/07/08 02:46:17;;;;;;;24.40;3.92;;;37.40;21.30;;;;;;5103861;28;20092;-63
2022/07/08 02:48:43;;;;;;;20.48;2.33;;;37.30;21.40;;;;;;5124074;28;20157;-63
2022/07/08 02:51:10;;;;;;;25.98;2.70;;;37.20;21.60;;;;;;5106568;28;20126;-66
2022/07/08 02:53:36;;;;;;;18.02;2.47;;;37.10;21.80;;;;;;5105005;28;20059;-62
2022/07/08 02:56:03;;;;;;;39.25;2.70;;;37.10;22.00;;;;;;5104491;28;20057;-62
2022/07/08 02:58:29;;;;;;;18.90;2.20;;;37.00;22.20;;;;;;5107937;28;20083;-61
2022/07/08 03:00:55;;;;;;;18.92;2.00;;;36.90;22.40;;;;;;5105817;28;20153;-63
2022/07/08 03:03:22;;;;;;;26.55;2.40;;;36.80;22.60;;;;;;5125525;28;20082;-61
2022/07/08 03:05:48;;;;;;;26.45;2.45;;;36.70;22.80;;;;;;5104076;28;20068;-61
2022/07/08 03:08:15;;;;;;;29.13;2.65;;;36.70;23.10;;;;;;5122542;28;20084;-60
2022/07/08 03:10:41;;;;;;;23.65;2.72;;;36.50;23.20;;;;;;5089258;28;20441;-60
2022/07/08 03:13:08;;;;;;;23.42;3.03;;;36.50;23.40;;;;;;5109215;28;20084;-61
2022/07/08 03:15:34;;;;;;;16.67;2.88;;;36.40;23.50;;;;;;5125177;28;20663;-61
2022/07/08 03:18:00;;;;;;;22.30;2.88;;;36.40;23.60;;;;;;5123990;28;20087;-60
2022/07/08 03:20:27;;;;;;;26.98;3.08;;;36.30;23.80;;;;;;5100940;28;20063;-59
2022/07/08 03:22:54;;;;;;;21.35;3.55;;;36.20;24.00;;;;;;5100890;28;20130;-63
2022/07/08 03:25:20;;;;;;;25.23;3.67;;;36.20;24.10;;;;;;5120288;28;20091;-60
2022/07/08 03:27:48;;;;;;;24.38;4.07;;;36.10;24.30;;;;;;5103220;28;20591;-61
2022/07/08 03:30:14;;;;;;;22.52;3.05;;;36.00;24.30;;;;;;5106938;28;20119;-61
2022/07/08 03:32:41;;;;;;;24.98;3.08;;;35.90;24.40;;;;;;5087247;28;20524;-61
2022/07/08 03:35:08;;;;;;;21.63;2.67;;;36.00;24.40;;;;;;5123445;28;20087;-60
2022/07/08 03:37:34;;;;;;;28.02;3.47;;;35.90;24.40;;;;;;5106435;28;20074;-61
2022/07/08 03:42:46;;;;;;;21.75;3.22;;;35.80;24.60;;;;;;5108697;28;20133;-60
2022/07/08 03:45:13;;;;;;;33.92;3.53;;;35.70;24.60;;;;;;5089999;28;20074;-59
2022/07/08 03:47:39;;;;;;;38.15;3.63;;;35.60;24.70;;;;;;5087006;28;20114;-58
2022/07/08 03:50:06;;;;;;;28.67;3.33;;;35.60;24.80;;;;;;5088695;28;20441;-61
2022/07/08 03:52:32;;;;;;;36.13;3.55;;;35.50;24.90;;;;;;5088676;28;20094;-61
2022/07/08 03:54:59;;;;;;;28.23;3.78;;;35.50;24.90;;;;;;5091653;28;20591;-61
2022/07/08 03:57:25;;;;;;;41.38;3.95;;;35.40;24.90;;;;;;5091147;28;20074;-61
2022/07/08 03:59:51;;;;;;;38.92;3.95;;;35.40;25.00;;;;;;5110712;28;20077;-62
2022/07/08 04:02:18;;;;;;;40.85;4.38;;;35.30;25.10;;;;;;5092267;28;20165;-60
2022/07/08 04:04:44;;;;;;;23.73;3.30;;;35.30;25.20;;;;;;5090346;28;20067;-63
2022/07/08 04:07:10;;;;;;;43.55;3.78;;;35.30;25.40;;;;;;5090908;28;20093;-62
2022/07/08 04:09:37;;;;;;;24.23;3.35;;;35.10;25.40;;;;;;5110148;28;20183;-62
2022/07/08 04:12:04;;;;;;;56.65;3.97;;;35.10;25.50;;;;;;5089823;28;20070;-60
2022/07/08 04:14:30;;;;;;;40.88;3.08;;;35.00;25.50;;;;;;5088636;28;20067;-58
2022/07/08 04:16:56;;;;;;;44.50;3.95;;;35.00;25.50;;;;;;5072828;28;20058;-61
2022/07/08 04:19:23;;;;;;;41.83;3.63;;;34.90;25.60;;;;;;5091907;28;20065;-61
2022/07/08 04:21:49;;;;;;;39.17;3.90;;;34.90;25.90;;;;;;5072020;28;20119;-61
2022/07/08 04:24:16;;;;;;;43.50;4.03;;;34.80;25.90;;;;;;5088788;28;20074;-62
2022/07/08 04:26:42;;;;;;;37.40;3.70;;;34.80;26.20;;;;;;5089723;28;20075;-62
2022/07/08 04:29:08;;;;;;;28.77;3.20;;;34.60;26.20;;;;;;5092078;28;20106;-60
2022/07/08 04:31:35;;;;;;;38.65;3.50;;;34.60;26.40;;;;;;5109619;28;20413;-62
2022/07/08 04:34:01;;;;;;;45.50;4.35;;;34.50;26.60;;;;;;5106510;28;20115;-61
2022/07/08 04:36:28;;;;;;;43.53;4.95;;;34.50;26.90;;;;;;5088114;28;20090;-60
2022/07/08 04:38:54;;;;;;;46.75;3.70;;;34.40;27.10;;;;;;5092359;28;20160;-62
2022/07/08 04:41:20;;;;;;;54.67;4.78;;;34.40;27.30;;;;;;5087748;28;20067;-62
2022/07/08 04:43:47;;;;;;;54.88;3.30;;;34.30;27.40;;;;;;5111573;28;20428;-61
2022/07/08 04:46:14;;;;;;;36.33;3.22;;;34.30;27.60;;;;;;5108009;28;20424;-59
2022/07/08 04:48:41;;;;;;;44.25;3.75;;;34.20;27.60;;;;;;5074065;28;20110;-60
2022/07/08 04:51:08;;;;;;;45.55;3.03;;;34.20;27.70;;;;;;5090381;28;20109;-61
2022/07/08 04:53:35;;;;;;;38.60;3.28;;;34.20;27.80;;;;;;5088239;28;20486;-61
2022/07/08 04:56:01;;;;;;;28.10;2.60;;;34.20;27.60;;;;;;5108033;28;20282;-61
2022/07/08 04:58:28;;;;;;;28.00;2.80;;;34.10;27.60;;;;;;5085760;28;20079;-59
2022/07/08 05:00:54;;;;;;;20.77;3.00;;;34.10;27.70;;;;;;5070153;28;20160;-62
2022/07/08 05:03:20;;;;;;;23.75;2.67;;;34.00;27.60;;;;;;5085595;28;20071;-60
2022/07/08 05:05:47;;;;;;;26.05;2.63;;;34.10;27.70;;;;;;5089976;28;20082;-61
2022/07/08 05:08:13;;;;;;;27.25;3.28;;;34.00;27.70;;;;;;5074429;28;20178;-60
2022/07/08 05:10:40;;;;;;;22.75;2.33;;;34.00;27.80;;;;;;5106165;28;20177;-61
2022/07/08 05:13:07;;;;;;;12.48;2.72;;;33.90;27.70;;;;;;5072341;28;20158;-63
2022/07/08 05:15:34;;;;;;;20.25;3.65;;;33.90;27.80;;;;;;5092234;28;20079;-61
2022/07/08 05:18:00;;;;;;;23.60;3.40;;;33.80;27.90;;;;;;5108490;28;20083;-63
2022/07/08 05:20:26;;;;;;;21.42;3.13;;;33.80;28.10;;;;;;5091660;28;20101;-60
2022/07/08 05:22:53;;;;;;;24.70;3.13;;;33.80;28.30;;;;;;5092002;28;20521;-61
2022/07/08 05:25:19;;;;;;;34.33;3.58;;;33.80;28.50;;;;;;5074613;28;20121;-61
2022/07/08 05:27:46;;;;;;;29.23;4.10;;;33.80;28.60;;;;;;5087658;28;20154;-61
2022/07/08 05:30:13;;;;;;;25.20;3.88;;;33.70;28.70;;;;;;5083535;28;20184;-61
2022/07/08 05:32:40;;;;;;;31.40;4.75;;;33.60;28.80;;;;;;5087268;28;20171;-61
2022/07/08 05:35:08;;;;;;;27.73;4.63;;;33.60;29.00;;;;;;5104375;28;20078;-62
2022/07/08 05:37:38;;;;;;;31.15;4.95;;;33.50;29.10;;;;;;5070374;28;20556;-61
2022/07/08 05:40:11;;;;;;;25.30;4.20;;;33.50;29.30;;;;;;5104453;28;20162;-60
2022/07/08 05:42:38;;;;;;;17.90;2.97;;;33.50;29.50;;;;;;5067095;28;20067;-61
2022/07/08 05:45:06;;;;;;;21.10;3.22;;;33.40;29.60;;;;;;5068767;28;20075;-62
2022/07/08 05:47:33;;;;;;;19.20;2.80;;;33.30;29.90;;;;;;5078775;28;20091;-61
2022/07/08 05:50:00;;;;;;;22.00;3.15;;;33.30;30.00;;;;;;5070358;28;20076;-61
2022/07/08 05:52:26;;;;;;;17.55;2.65;;;33.20;30.60;;;;;;5087692;28;20159;-62
2022/07/08 05:54:53;;;;;;;22.23;2.63;;;33.20;30.20;;;;;;5070636;28;20068;-60
2022/07/08 05:57:20;;;;;;;24.48;3.00;;;33.20;30.40;;;;;;5087498;28;20095;-61
2022/07/08 05:59:46;;;;;;;16.15;3.47;;;33.00;30.60;;;;;;5088266;28;20082;-61
2022/07/08 06:02:12;;;;;;;24.30;2.80;;;32.90;30.90;;;;;;5087231;28;20142;-61
2022/07/08 06:04:39;;;;;;;18.00;3.70;;;33.00;31.00;;;;;;5086935;28;20072;-60
2022/07/08 06:07:05;;;;;;;22.33;3.53;;;32.90;31.30;;;;;;5085533;28;20074;-61
2022/07/08 06:09:32;;;;;;;17.70;2.85;;;32.80;31.50;;;;;;5084318;28;20604;-61
2022/07/08 06:11:58;;;;;;;16.23;2.67;;;32.70;31.90;;;;;;5085273;28;20108;-61
2022/07/08 06:14:24;;;;;;;22.02;2.85;;;32.70;32.00;;;;;;5087010;28;20079;-58
2022/07/08 06:16:51;;;;;;;20.40;3.35;;;32.70;32.30;;;;;;5070467;28;20071;-60
2022/07/08 06:19:17;;;;;;;13.35;2.50;;;32.60;32.40;;;;;;5088020;28;20125;-60
2022/07/08 06:21:44;;;;;;;12.35;2.45;;;32.60;32.50;;;;;;5085221;28;20072;-61
2022/07/08 06:24:10;;;;;;;13.95;2.35;;;32.60;32.60;;;;;;5085245;28;20082;-61
2022/07/08 06:26:37;;;;;;;13.10;2.58;;;32.50;32.80;;;;;;5085165;28;20072;-62
2022/07/08 06:29:04;;;;;;;15.02;2.40;;;32.50;33.00;;;;;;5086585;28;20114;-61
2022/07/08 06:31:33;;;;;;;13.98;2.80;;;32.50;33.10;;;;;;5088718;28;20533;-60
2022/07/08 06:33:59;;;;;;;20.23;2.65;;;32.50;33.00;;;;;;5103002;28;20122;-60
2022/07/08 06:36:26;;;;;;;14.23;2.60;;;32.40;33.00;;;;;;5087139;28;20575;-62
2022/07/08 06:38:53;;;;;;;10.27;2.50;;;32.50;33.10;;;;;;5086868;28;20079;-62
2022/07/08 06:41:20;;;;;;;15.88;2.90;;;32.40;33.50;;;;;;5103678;28;20166;-62
2022/07/08 06:43:47;;;;;;;12.25;2.40;;;32.30;33.40;;;;;;5088331;28;20075;-58
2022/07/08 06:46:14;;;;;;;13.30;2.58;;;32.30;33.50;;;;;;5080660;28;20088;-62
2022/07/08 06:48:41;;;;;;;23.02;3.17;;;32.30;33.70;;;;;;5081095;28;20129;-61
2022/07/08 06:51:07;;;;;;;10.85;2.22;;;32.30;33.80;;;;;;5067509;28;20158;-63
2022/07/08 06:56:18;;;;;;;13.00;2.45;;;32.30;34.00;;;;;;5088176;28;20158;-61
2022/07/08 06:58:45;;;;;;;10.13;2.30;;;32.20;34.20;;;;;;5086634;28;20071;-61
2022/07/08 07:01:11;;;;;;;12.38;2.65;;;32.20;34.70;;;;;;5081149;28;20570;-61
2022/07/08 07:03:39;;;;;;;18.25;3.50;;;32.10;34.70;;;;;;5080773;28;20071;-61
2022/07/08 07:06:05;;;;;;;12.65;3.08;;;32.00;34.90;;;;;;5102697;28;20557;-60
2022/07/08 07:08:32;;;;;;;26.10;4.15;;;32.00;34.90;;;;;;5082489;28;20108;-61
2022/07/08 07:10:58;;;;;;;21.70;3.60;;;31.90;34.70;;;;;;5085811;28;20102;-62
2022/07/08 07:13:25;;;;;;;20.05;4.60;;;31.90;34.70;;;;;;5070380;28;20075;-62
2022/07/08 07:15:51;;;;;;;21.33;4.68;;;31.80;34.80;;;;;;5091428;28;20540;-64
2022/07/08 07:18:18;;;;;;;13.88;4.15;;;31.80;34.90;;;;;;5090415;28;20091;-62
2022/07/08 07:20:44;;;;;;;20.35;4.22;;;31.70;34.80;;;;;;5091404;28;20452;-64
2022/07/08 07:23:10;;;;;;;25.70;4.13;;;31.70;35.00;;;;;;5088507;28;20136;-62
2022/07/08 07:25:37;;;;;;;22.33;3.60;;;31.70;36.10;;;;;;5081164;28;20182;-62
2022/07/08 07:28:03;;;;;;;21.60;3.20;;;31.60;35.80;;;;;;5080909;28;20122;-64
2022/07/08 07:30:31;;;;;;;22.10;3.85;;;31.50;36.00;;;;;;5087893;28;20076;-64
2022/07/08 07:32:57;;;;;;;21.65;4.20;;;31.50;36.40;;;;;;5089619;28;20115;-62
2022/07/08 07:35:24;;;;;;;15.82;4.13;;;31.60;37.40;;;;;;5073075;28;20084;-64
2022/07/08 07:37:50;;;;;;;16.42;4.60;;;31.50;37.20;;;;;;5086298;28;20186;-64
2022/07/08 07:40:16;;;;;;;18.92;4.40;;;31.50;37.30;;;;;;5089407;28;20075;-63
2022/07/08 07:42:43;;;;;;;19.90;4.82;;;31.50;38.60;;;;;;5072948;28;20132;-64
2022/07/08 07:45:09;;;;;;;40.17;5.97;;;31.40;38.70;;;;;;5090942;28;20120;-64
2022/07/08 07:47:35;;;;;;;20.50;4.45;;;31.30;39.00;;;;;;5089374;28;20490;-63
2022/07/08 07:50:02;;;;;;;17.92;4.47;;;31.30;39.00;;;;;;5089695;28;20072;-65
2022/07/08 07:52:29;;;;;;;27.73;5.63;;;31.20;39.80;;;;;;5089065;28;20056;-65
2022/07/08 07:54:55;;;;;;;40.90;6.47;;;31.20;39.60;;;;;;5090555;28;20072;-65
2022/07/08 07:57:21;;;;;;;17.95;5.45;;;31.20;39.40;;;;;;5088379;28;20150;-61
2022/07/08 07:59:48;;;;;;;21.42;5.05;;;31.20;40.00;;;;;;5089351;28;20076;-64
2022/07/08 08:02:14;;;;;;;25.02;5.00;;;31.20;40.70;;;;;;5079165;28;20126;-63
2022/07/08 08:04:41;;;;;;;19.23;4.22;;;31.10;41.30;;;;;;5087080;28;20071;-62
2022/07/08 08:07:08;;;;;;;18.08;4.75;;;31.00;40.90;;;;;;5089203;28;20076;-62
2022/07/08 08:09:34;;;;;;;18.30;4.68;;;30.90;42.20;;;;;;5086439;28;20075;-62
2022/07/08 08:12:00;;;;;;;18.88;4.65;;;30.90;41.80;;;;;;5086377;28;20072;-63
2022/07/08 08:14:27;;;;;;;16.73;5.00;;;30.90;41.50;;;;;;5089601;28;20119;-58
2022/07/08 08:16:53;;;;;;;21.90;4.53;;;30.90;42.10;;;;;;5088751;28;20086;-60
2022/07/08 08:19:19;;;;;;;15.23;5.13;;;30.80;42.20;;;;;;5089561;28;20072;-61
2022/07/08 08:21:46;;;;;;;24.27;4.97;;;30.80;42.20;;;;;;5083627;28;20067;-61
2022/07/08 08:24:12;;;;;;;29.13;5.15;;;30.70;43.60;;;;;;5081857;28;20616;-63
2022/07/08 08:26:38;;;;;;;17.45;4.07;;;30.70;43.40;;;;;;5084437;28;20152;-60
2022/07/08 08:29:05;;;;;;;14.52;3.83;;;30.70;43.20;;;;;;5086651;28;21168;-61
2022/07/08 08:31:31;;;;;;;16.67;3.90;;;30.60;43.60;;;;;;5087354;28;20113;-61
2022/07/08 08:33:58;;;;;;;19.38;4.32;;;30.50;44.30;;;;;;5087013;28;20103;-63
2022/07/08 08:36:26;;;;;;;14.88;3.83;;;30.50;44.80;;;;;;5087100;28;20099;-63
2022/07/08 08:38:52;;;;;;;13.80;4.38;;;30.50;44.80;;;;;;5087530;28;20091;-62
2022/07/08 08:41:19;;;;;;;16.50;5.80;;;30.50;44.80;;;;;;5087869;28;20110;-63
2022/07/08 08:43:45;;;;;;;22.83;5.53;;;30.50;45.00;;;;;;5089071;28;20141;-62
2022/07/08 08:46:12;;;;;;;23.63;6.40;;;30.50;45.30;;;;;;5088370;28;20079;-61
2022/07/08 08:48:40;;;;;;;24.88;6.72;;;30.50;45.30;;;;;;5087758;28;20170;-60
2022/07/08 08:51:11;;;;;;;20.98;7.30;;;30.60;45.40;;;;;;5078449;28;20575;-63
2022/07/08 08:53:47;;;;;;;21.10;6.68;;;30.50;46.30;;;;;;5088064;28;20084;-61
2022/07/08 08:56:15;;;;;;;12.45;4.78;;;30.40;46.60;;;;;;5082831;28;20074;-60
2022/07/08 08:58:47;;;;;;;13.73;4.03;;;30.30;46.80;;;;;;5069683;28;20153;-60
2022/07/08 09:01:14;;;;;;;14.85;3.83;;;30.30;46.50;;;;;;5086966;28;20133;-61
2022/07/08 09:03:42;;;;;;;16.85;5.88;;;30.20;46.90;;;;;;5089742;28;20100;-61
2022/07/08 09:06:09;;;;;;;24.38;5.85;;;30.00;46.70;;;;;;5089400;28;20091;-60
2022/07/08 09:08:36;;;;;;;21.48;6.30;;;29.80;47.10;;;;;;5105509;28;20119;-63
2022/07/08 09:11:03;;;;;;;16.60;5.32;;;29.70;47.70;;;;;;5086770;28;20444;-61
2022/07/08 09:13:29;;;;;;;19.75;4.57;;;29.70;48.10;;;;;;5088551;28;20158;-61
2022/07/08 09:15:58;;;;;;;17.55;4.75;;;29.60;48.50;;;;;;5085384;28;20082;-63
2022/07/08 09:18:34;;;;;;;22.42;9.30;;;29.50;49.30;;;;;;5073109;28;20426;-61
2022/07/08 09:21:01;;;;;;;;;;;29.40;49.40;;;;;;5087910;28;20154;-61
2022/07/08 09:23:33;;;;;;;35.80;23.58;;;29.30;50.40;;;;;;5081683;28;20047;-60
2022/07/08 09:26:07;;;;;;;38.92;21.02;;;29.10;51.10;;;;;;5066169;28;20079;-61
2022/07/08 09:28:41;;;;;;;31.88;17.98;;;29.10;51.20;;;;;;5083044;28;20113;-60
2022/07/08 09:31:09;;;;;;;31.45;16.08;;;29.20;51.90;;;;;;5083678;28;20076;-61
2022/07/08 09:33:36;;;;;;;37.55;13.30;;;29.00;51.60;;;;;;5068256;28;20065;-60
2022/07/08 09:36:04;;;;;;;30.77;11.68;;;28.90;52.10;;;;;;5087796;28;20100;-61
2022/07/08 09:38:35;;;;;;;27.40;10.07;;;28.90;52.30;;;;;;5085258;28;20509;-60
2022/07/08 09:41:12;;;;;;;19.35;8.85;;;28.80;52.70;;;;;;5070317;28;20082;-61
2022/07/08 09:43:48;;;;;;;20.05;6.97;;;28.90;53.40;;;;;;5088390;28;20163;-60
2022/07/08 09:46:14;;;;;;;24.63;6.17;;;28.90;53.50;;;;;;5088121;28;20151;-60
2022/07/08 09:48:41;;;;;;;17.50;5.22;;;28.90;53.50;;;;;;5084559;28;20100;-61
2022/07/08 09:51:08;;;;;;;18.67;4.70;;;28.70;54.00;;;;;;5085869;28;20518;-60
2022/07/08 09:53:36;;;;;;;16.70;4.57;;;28.70;55.20;;;;;;5087531;28;20556;-61
2022/07/08 09:56:03;;;;;;;19.00;4.75;;;28.70;54.90;;;;;;5054380;28;20079;-60
2022/07/08 09:58:32;;;;;;;14.93;4.60;;;28.70;55.10;;;;;;5087916;28;20071;-58
2022/07/08 10:01:00;;;;;;;15.85;4.88;;;28.70;55.40;;;;;;5088543;28;20085;-61
2022/07/08 10:03:28;;;;;;;23.48;5.13;;;28.70;55.60;;;;;;5089185;28;20068;-62
2022/07/08 10:05:54;;;;;;;15.57;4.90;;;28.60;56.40;;;;;;5070479;28;20072;-59
2022/07/08 10:08:23;;;;;;;16.92;4.85;;;28.60;57.00;;;;;;5088723;28;20087;-61
2022/07/08 10:10:50;;;;;;;17.02;5.13;;;28.70;57.10;;;;;;5088221;28;20069;-61
2022/07/08 10:13:19;;;;;;;23.85;6.10;;;28.60;57.30;;;;;;5104167;28;20842;-61
2022/07/08 10:15:48;;;;;;;15.73;5.90;;;28.70;58.20;;;;;;5104317;28;20088;-62
2022/07/08 10:18:20;;;;;;;23.52;6.35;;;28.50;58.40;;;;;;5087764;28;20076;-61
2022/07/08 10:20:53;;;;;;;20.70;6.20;;;28.60;58.50;;;;;;5070796;28;20079;-63
2022/07/08 10:23:36;;;;;;;18.50;6.32;;;28.50;59.10;;;;;;5086534;28;21440;-61
2022/07/08 10:26:04;;;;;;;32.70;6.88;;;28.40;59.90;;;;;;5086765;28;20091;-61
2022/07/08 10:28:43;;;;;;;17.52;5.68;;;28.40;60.50;;;;;;5095431;28;20445;-61
2022/07/08 10:31:24;;;;;;;20.20;6.85;;;28.40;60.60;;;;;;5057771;28;20162;-60
2022/07/08 10:33:51;;;;;;;18.58;6.03;;;28.30;62.20;;;;;;5069541;28;20078;-60
2022/07/08 10:36:22;;;;;;;15.05;5.45;;;28.30;62.90;;;;;;5106819;28;20108;-61
2022/07/08 10:38:50;;;;;;;19.30;5.65;;;28.30;62.20;;;;;;5089023;28;20124;-61
2022/07/08 10:41:23;;;;;;;17.60;5.07;;;28.30;63.70;;;;;;5090710;28;20545;-61
2022/07/08 10:43:52;;;;;;;15.95;4.93;;;28.20;63.60;;;;;;5107818;28;20075;-61
2022/07/08 10:46:20;;;;;;;13.60;5.47;;;28.10;63.50;;;;;;5086804;28;20076;-61
2022/07/08 10:48:58;;;;;;;15.43;5.97;;;28.20;64.30;;;;;;5089194;28;20541;-61
2022/07/08 10:51:24;;;;;;;18.05;5.50;;;28.30;64.40;;;;;;5112196;28;20424;-61
2022/07/08 10:53:55;;;;;;;23.30;5.05;;;28.30;63.80;;;;;;5112516;28;20157;-61
2022/07/08 10:56:53;;;;;;;13.45;4.53;;;28.10;63.40;;;;;;5088777;28;20150;-60
2022/07/08 10:59:21;;;;;;;20.75;5.50;;;28.20;63.30;;;;;;5090668;28;20070;-61
2022/07/08 11:02:00;;;;;;;18.52;5.57;;;28.20;64.20;;;;;;5092836;28;20233;-60
2022/07/08 11:04:38;;;;;;;18.25;5.38;;;28.10;64.00;;;;;;5092437;28;20096;-61
2022/07/08 11:07:29;;;;;;;22.80;5.45;;;28.20;63.50;;;;;;5111613;28;20071;-60
2022/07/08 11:10:11;;;;;;;16.50;5.75;;;28.30;63.10;;;;;;5111958;28;20094;-60
2022/07/08 11:12:41;;;;;;;18.73;6.20;;;28.20;63.50;;;;;;5094038;28;20471;-61
2022/07/08 11:15:18;;;;;;;15.18;5.28;;;28.10;64.00;;;;;;5078146;28;20068;-60
2022/07/08 11:17:50;;;;;;;13.10;5.15;;;28.10;64.40;;;;;;5078429;28;20150;-60
2022/07/08 11:20:21;;;;;;;22.35;5.60;;;28.10;64.10;;;;;;5077950;28;20086;-62
2022/07/08 11:22:47;;;;;;;24.27;5.40;;;28.10;64.10;;;;;;5093740;28;20072;-60
2022/07/08 11:25:15;;;;;;;11.88;4.93;;;28.10;64.10;;;;;;5094007;28;20068;-61
2022/07/08 11:27:42;;;;;;;13.07;5.35;;;28.00;64.30;;;;;;5092709;28;20106;-60
2022/07/08 11:30:11;;;;;;;14.90;5.82;;;27.90;64.70;;;;;;5093042;28;20059;-62
2022/07/08 11:32:38;;;;;;;19.73;5.15;;;27.90;65.10;;;;;;5092187;28;20125;-60
2022/07/08 11:35:04;;;;;;;16.63;5.65;;;27.90;63.80;;;;;;5093630;28;20183;-61
2022/07/08 11:37:32;;;;;;;15.85;4.72;;;27.90;63.50;;;;;;5086801;28;20081;-61
2022/07/08 11:40:00;;;;;;;18.38;5.20;;;27.80;62.80;;;;;;5088960;28;20072;-63
2022/07/08 11:42:26;;;;;;;17.70;4.80;;;27.80;64.20;;;;;;5091886;28;20090;-62
2022/07/08 11:44:53;;;;;;;9.40;4.10;;;27.90;62.80;;;;;;5093661;28;20103;-61
2022/07/08 11:47:20;;;;;;;15.07;3.50;;;27.90;63.10;;;;;;5092996;28;20078;-58
2022/07/08 11:49:48;;;;;;;18.30;3.92;;;27.90;60.50;;;;;;5091831;28;20064;-61
2022/07/08 11:52:19;;;;;;;17.85;4.13;;;27.80;60.20;;;;;;5068692;28;20547;-61
2022/07/08 11:54:47;;;;;;;14.10;3.33;;;27.80;59.80;;;;;;5070170;28;20068;-61
2022/07/08 11:57:16;;;;;;;10.40;3.55;;;27.80;59.60;;;;;;5087944;28;20137;-60
2022/07/08 11:59:47;;;;;;;17.73;3.75;;;27.80;60.00;;;;;;5089131;28;20076;-61
2022/07/08 12:02:18;;;;;;;13.02;3.85;;;27.80;59.10;;;;;;5077190;28;20068;-62
2022/07/08 12:04:49;;;;;;;18.48;4.13;;;27.80;59.30;;;;;;5110255;28;20067;-61
2022/07/08 12:07:28;;;;;;;11.07;3.55;;;27.70;58.20;;;;;;5111365;28;20072;-60
2022/07/08 12:10:04;;;;;;;15.40;3.97;;;27.70;57.70;;;;;;5092642;28;20095;-62
2022/07/08 12:12:35;;;;;;;11.23;3.85;;;27.70;55.50;;;;;;5091347;28;20171;-63
2022/07/08 12:15:12;;;;;;;10.82;3.10;;;27.70;54.00;;;;;;5076114;28;20068;-61
2022/07/08 12:17:39;;;;;;;12.40;3.85;;;27.80;53.00;;;;;;5075925;28;20120;-61
2022/07/08 12:20:06;;;;;;;15.85;3.30;;;27.70;53.80;;;;;;5087035;28;20079;-61
2022/07/08 12:22:46;;;;;;;10.77;3.20;;;27.70;53.30;;;;;;5105189;28;20119;-62
2022/07/08 12:25:16;;;;;;;11.35;2.78;;;27.70;52.90;;;;;;5092357;28;20074;-61
2022/07/08 12:27:44;;;;;;;17.25;3.85;;;27.60;52.50;;;;;;5108433;28;20115;-64
2022/07/08 12:30:11;;;;;;;11.93;3.30;;;27.60;51.50;;;;;;5091315;28;20413;-62
2022/07/08 12:32:39;;;;;;;17.88;4.20;;;27.70;50.90;;;;;;5092401;28;20064;-60
2022/07/08 12:35:06;;;;;;;20.17;4.35;;;27.70;50.80;;;;;;5092136;28;20491;-61
2022/07/08 12:37:33;;;;;;;21.55;4.40;;;27.80;50.80;;;;;;5091724;28;20129;-60
2022/07/08 12:40:13;;;;;;;13.13;3.92;;;27.80;50.30;;;;;;5089931;28;20544;-60
2022/07/08 12:42:39;;;;;;;16.75;3.88;;;27.70;50.00;;;;;;5090124;28;20084;-60
2022/07/08 12:45:16;;;;;;;18.00;3.75;;;27.60;50.30;;;;;;5091694;28;20072;-61
2022/07/08 12:47:46;;;;;;;13.77;3.25;;;27.60;50.10;;;;;;5075259;28;20138;-63
2022/07/08 12:50:18;;;;;;;10.05;2.70;;;27.60;50.00;;;;;;5069500;28;20134;-62